Time;durP1;ratioP1;P1;durP2;ratioP2;P2;SDS_P1;SDS_P2;PMS_P1;PMS_P2;Temp;Humidity;BMP_temperature;BMP_pressure;BME280_temperature;BME280_humidity;BME280_pressure;Samples;Min_cycle;Max_cycle;Signal;HPM_P1;HPM_P2
2023/11/30 00:02:23;;;;;;;34.00;15.75;;;;;;;-0.54;100.00;99203.03;10366740;28;20037;-78
2023/11/30 00:07:26;;;;;;;32.60;16.33;;;;;;;-0.43;100.00;99200.66;10356360;28;20053;-79
2023/11/30 00:12:29;;;;;;;29.33;16.88;;;;;;;-0.33;100.00;99193.97;10357690;28;20052;-78
2023/11/30 00:17:33;;;;;;;28.48;14.93;;;;;;;-0.34;100.00;99202.78;10362153;28;20053;-78
2023/11/30 00:22:36;;;;;;;31.95;14.43;;;;;;;-0.30;100.00;99206.97;10368365;28;20042;-78
2023/11/30 00:27:39;;;;;;;25.65;12.73;;;;;;;-0.57;100.00;99200.56;10345317;28;20058;-78
2023/11/30 00:32:43;;;;;;;34.13;15.82;;;;;;;-0.43;100.00;99200.66;10363852;28;20568;-78
2023/11/30 00:37:46;;;;;;;30.55;14.52;;;;;;;-0.46;99.09;99192.91;10355451;28;20073;-79
2023/11/30 00:42:49;;;;;;;28.08;14.55;;;;;;;-0.57;98.91;99193.50;10364196;28;20152;-78
2023/11/30 00:47:53;;;;;;;31.10;14.30;;;;;;;-0.54;99.71;99187.22;10363140;28;20129;-78
2023/11/30 00:52:56;;;;;;;26.20;13.60;;;;;;;-0.56;99.62;99194.34;10353131;28;20084;-77
2023/11/30 00:57:59;;;;;;;31.05;15.38;;;;;;;-0.58;100.00;99196.22;10356946;28;20045;-79
2023/11/30 01:03:03;;;;;;;32.90;14.02;;;;;;;-0.70;99.55;99202.16;10358685;28;20069;-78
2023/11/30 01:08:06;;;;;;;33.33;15.85;;;;;;;-0.64;100.00;99194.75;10356946;28;20629;-78
2023/11/30 01:13:09;;;;;;;33.67;15.23;;;;;;;-0.62;100.00;99197.31;10361638;28;20055;-79
2023/11/30 01:18:14;;;;;;;36.00;16.90;;;;;;;-0.69;100.00;99202.06;10360810;28;20683;-79
2023/11/30 01:23:17;;;;;;;32.30;15.32;;;;;;;-0.65;100.00;99193.06;10366463;28;20048;-79
2023/11/30 01:28:20;;;;;;;36.85;17.30;;;;;;;-0.69;100.00;99209.13;10363276;28;20038;-78
2023/11/30 01:33:24;;;;;;;37.78;17.42;;;;;;;-0.76;100.00;99201.53;10369118;28;20049;-79
2023/11/30 01:38:27;;;;;;;39.97;17.85;;;;;;;-0.75;100.00;99192.69;10352521;28;20472;-79
2023/11/30 01:43:30;;;;;;;39.42;17.05;;;;;;;-0.85;100.00;99194.13;10358918;28;20053;-78
2023/11/30 01:48:34;;;;;;;34.33;15.75;;;;;;;-0.81;100.00;99195.66;10360409;28;21446;-79
2023/11/30 01:53:39;;;;;;;38.30;18.15;;;;;;;-0.76;100.00;99180.44;10355327;28;20179;-78
2023/11/30 01:58:42;;;;;;;40.00;17.10;;;;;;;-0.77;100.00;99183.16;10362780;28;20056;-77
2023/11/30 02:03:47;;;;;;;40.92;16.95;;;;;;;-0.80;100.00;99176.25;10374228;28;20052;-79
2023/11/30 02:08:50;;;;;;;41.38;17.70;;;;;;;-0.73;100.00;99175.00;10355369;28;20045;-78
2023/11/30 02:13:54;;;;;;;40.03;18.25;;;;;;;-0.63;100.00;99164.81;10355140;28;20801;-79
2023/11/30 02:18:59;;;;;;;41.08;17.30;;;;;;;-0.58;100.00;99157.47;10362298;28;20057;-79
2023/11/30 02:24:04;;;;;;;40.35;18.08;;;;;;;-0.58;100.00;99154.00;10357448;28;20150;-78
2023/11/30 02:29:07;;;;;;;38.95;18.02;;;;;;;-0.50;100.00;99141.25;10349584;28;20049;-79
2023/11/30 02:34:11;;;;;;;39.58;17.05;;;;;;;-0.53;100.00;99138.78;10359007;28;20045;-78
2023/11/30 02:39:15;;;;;;;39.53;17.83;;;;;;;-0.60;100.00;99140.91;10359631;28;20041;-80
2023/11/30 02:44:18;;;;;;;32.97;16.02;;;;;;;-0.60;100.00;99127.72;10347279;28;20424;-79
2023/11/30 02:49:21;;;;;;;36.83;17.92;;;;;;;-0.57;100.00;99129.34;10353924;28;20423;-79
2023/11/30 02:54:25;;;;;;;41.22;18.02;;;;;;;-0.54;100.00;99119.47;10364768;28;20052;-79
2023/11/30 02:59:28;;;;;;;40.33;17.65;;;;;;;-0.48;100.00;99120.91;10346692;28;20054;-78
2023/11/30 03:04:31;;;;;;;36.55;15.35;;;;;;;-0.59;100.00;99132.06;10369786;28;20207;-78
2023/11/30 03:09:35;;;;;;;41.70;17.92;;;;;;;-0.48;100.00;99120.91;10365427;28;20053;-79
2023/11/30 03:14:38;;;;;;;42.83;17.35;;;;;;;-0.45;100.00;99120.75;10354243;28;20045;-79
2023/11/30 03:19:42;;;;;;;43.33;18.83;;;;;;;-0.42;100.00;99115.28;10391696;28;20045;-78
2023/11/30 03:24:46;;;;;;;40.92;18.85;;;;;;;-0.32;100.00;99116.47;10365674;28;20125;-78
2023/11/30 03:29:49;;;;;;;35.38;16.85;;;;;;;-0.34;100.00;99113.06;10376408;28;20045;-78
2023/11/30 03:34:52;;;;;;;42.70;18.05;;;;;;;-0.39;100.00;99106.34;10371850;28;20046;-79
2023/11/30 03:39:56;;;;;;;39.67;17.35;;;;;;;-0.36;100.00;99109.66;10369368;28;20053;-78
2023/11/30 03:44:59;;;;;;;45.55;19.88;;;;;;;-0.33;100.00;99120.06;10369112;28;20041;-79
2023/11/30 03:50:02;;;;;;;40.13;17.88;;;;;;;-0.25;100.00;99113.50;10364774;28;20066;-79
2023/11/30 03:55:07;;;;;;;39.45;17.98;;;;;;;-0.20;100.00;99117.56;10364248;28;20042;-79
2023/11/30 04:00:12;;;;;;;38.95;19.17;;;;;;;-0.22;100.00;99118.59;10353719;28;20513;-78
2023/11/30 04:05:16;;;;;;;41.30;18.63;;;;;;;-0.22;100.00;99121.22;10372950;28;20111;-78
2023/11/30 04:10:20;;;;;;;42.05;17.92;;;;;;;-0.22;100.00;99126.50;10371904;28;20045;-78
2023/11/30 04:15:23;;;;;;;39.47;18.23;;;;;;;-0.24;100.00;99123.13;10380813;28;20061;-78
2023/11/30 04:20:27;;;;;;;42.28;19.20;;;;;;;-0.31;100.00;99118.19;10365991;28;20267;-78
2023/11/30 04:25:31;;;;;;;34.25;16.20;;;;;;;-0.26;100.00;99119.72;10353278;28;20053;-79
2023/11/30 04:30:34;;;;;;;39.55;18.35;;;;;;;-0.28;100.00;99119.78;10368028;28;20045;-79
2023/11/30 04:35:37;;;;;;;38.30;18.35;;;;;;;-0.27;100.00;99118.88;10355634;28;20046;-78
2023/11/30 04:40:41;;;;;;;40.33;18.30;;;;;;;-0.32;100.00;99111.19;10364592;28;20056;-78
2023/11/30 04:45:44;;;;;;;42.47;19.40;;;;;;;-0.28;100.00;99118.00;10355034;28;20057;-78
2023/11/30 04:50:47;;;;;;;47.75;19.85;;;;;;;-0.31;100.00;99104.13;10363633;28;20065;-78
2023/11/30 04:55:52;;;;;;;44.15;19.58;;;;;;;-0.30;100.00;99114.63;10369658;28;20050;-78
2023/11/30 05:00:55;;;;;;;36.92;18.98;;;;;;;-0.33;100.00;99120.06;10358897;28;20052;-78
2023/11/30 05:05:58;;;;;;;39.33;18.50;;;;;;;-0.29;100.00;99120.75;10361191;28;20042;-78
2023/11/30 05:11:02;;;;;;;44.70;19.60;;;;;;;-0.21;100.00;99125.59;10362676;28;20041;-77
2023/11/30 05:16:06;;;;;;;43.90;18.73;;;;;;;-0.20;100.00;99133.41;10357874;28;20613;-78
2023/11/30 05:21:09;;;;;;;40.80;20.15;;;;;;;-0.19;100.00;99129.84;10355931;28;20095;-78
2023/11/30 05:26:14;;;;;;;45.00;19.98;;;;;;;-0.22;100.00;99126.50;10358591;28;20192;-78
2023/11/30 05:31:17;;;;;;;39.72;19.75;;;;;;;-0.15;100.00;99123.44;10356020;28;20049;-78
2023/11/30 05:36:19;;;;;;;52.92;19.77;;;;;;;-0.13;100.00;99136.56;10366277;28;20556;-78
2023/11/30 05:41:24;;;;;;;47.72;19.38;;;;;;;-0.15;100.00;99127.88;10363225;28;20045;-78
2023/11/30 05:46:26;;;;;;;47.55;21.42;;;;;;;-0.14;100.00;99125.16;10351307;28;20162;-78
2023/11/30 05:51:29;;;;;;;54.45;22.85;;;;;;;-0.16;100.00;99127.03;10360999;28;20073;-78
2023/11/30 05:56:33;;;;;;;57.20;26.08;;;;;;;-0.21;100.00;99131.72;10355733;28;20046;-78
2023/11/30 06:01:36;;;;;;;60.03;22.77;;;;;;;-0.28;100.00;99133.81;10360306;28;20678;-78
2023/11/30 06:06:41;;;;;;;54.50;21.40;;;;;;;-0.33;100.00;99125.34;10359015;28;20139;-78
2023/11/30 06:11:45;;;;;;;56.38;22.40;;;;;;;-0.54;100.00;99130.03;10352155;28;20054;-78
2023/11/30 06:16:47;;;;;;;59.15;24.13;;;;;;;-0.48;100.00;99122.72;10355018;28;20061;-77
2023/11/30 06:21:50;;;;;;;55.85;22.65;;;;;;;-0.43;100.00;99118.88;10366741;28;20041;-77
2023/11/30 06:26:54;;;;;;;67.63;25.48;;;;;;;-0.47;100.00;99109.41;10396400;28;20041;-77
2023/11/30 06:32:00;;;;;;;66.90;24.85;;;;;;;-0.52;100.00;99120.25;10342896;28;20049;-78
2023/11/30 06:37:03;;;;;;;68.22;24.83;;;;;;;-0.62;100.00;99115.56;10355032;28;20164;-78
2023/11/30 06:42:07;;;;;;;69.28;24.98;;;;;;;-0.53;100.00;99115.03;10350983;28;20061;-78
2023/11/30 06:47:11;;;;;;;63.58;25.23;;;;;;;-0.50;100.00;99099.88;10345299;28;20092;-78
2023/11/30 06:52:14;;;;;;;65.38;24.50;;;;;;;-0.35;100.00;99107.91;10352020;28;20054;-78
2023/11/30 06:57:18;;;;;;;69.20;21.33;;;;;;;1.23;100.00;99107.25;10351837;28;20080;-77
2023/11/30 07:02:21;;;;;;;86.90;28.50;;;;;;;1.93;98.83;99107.19;10352532;28;20127;-78
2023/11/30 07:07:24;;;;;;;79.65;29.63;;;;;;;2.45;97.35;99107.31;10354445;28;20054;-78
2023/11/30 07:12:39;;;;;;;66.03;28.58;;;;;;;1.88;93.12;99109.28;10361706;28;20436;-78
2023/11/30 07:17:42;;;;;;;42.03;20.45;;;;;;;0.89;94.86;99103.22;10357174;28;20456;-78
2023/11/30 07:22:45;;;;;;;37.83;18.33;;;;;;;0.39;97.58;99094.78;10360972;28;21040;-78
2023/11/30 07:27:50;;;;;;;42.35;19.48;;;;;;;0.08;98.36;99106.31;10361154;28;20191;-78
2023/11/30 07:32:53;;;;;;;49.88;21.92;;;;;;;0.01;100.00;99118.13;10348090;28;20049;-78
2023/11/30 07:37:56;;;;;;;48.25;21.75;;;;;;;0.01;100.00;99119.94;10356673;28;21347;-78
2023/11/30 07:43:00;;;;;;;43.95;20.25;;;;;;;0.01;100.00;99123.41;10362099;28;20496;-77
2023/11/30 07:48:04;;;;;;;42.70;20.48;;;;;;;0.04;100.00;99123.25;10348479;28;20045;-78
2023/11/30 07:53:09;;;;;;;46.50;20.95;;;;;;;0.05;100.00;99122.28;10355852;28;20120;-79
2023/11/30 07:58:13;;;;;;;41.72;22.75;;;;;;;0.08;100.00;99129.19;10362511;28;20088;-78
2023/11/30 08:03:16;;;;;;;54.05;21.40;;;;;;;0.13;100.00;99127.13;10362170;28;20065;-78
2023/11/30 08:08:19;;;;;;;49.08;21.83;;;;;;;0.17;100.00;99129.53;10359766;28;20041;-79
2023/11/30 08:13:23;;;;;;;44.30;19.90;;;;;;;0.22;100.00;99120.47;10366548;28;20049;-77
2023/11/30 08:18:26;;;;;;;40.80;20.42;;;;;;;0.43;100.00;99135.06;10351652;28;20054;-79
2023/11/30 08:23:29;;;;;;;40.55;18.80;;;;;;;0.56;100.00;99122.81;10359126;28;20049;-78
2023/11/30 08:28:33;;;;;;;46.05;20.88;;;;;;;0.54;100.00;99134.44;10364188;28;20061;-78
2023/11/30 08:33:36;;;;;;;41.65;19.95;;;;;;;0.52;100.00;99134.53;10357626;28;20048;-79
2023/11/30 08:38:39;;;;;;;42.20;19.67;;;;;;;0.53;100.00;99135.38;10391433;28;20508;-79
2023/11/30 08:43:43;;;;;;;46.10;20.48;;;;;;;0.57;100.00;99137.72;10373120;28;20053;-78
2023/11/30 08:48:46;;;;;;;47.40;20.52;;;;;;;0.61;100.00;99136.63;10360671;28;20041;-78
2023/11/30 08:53:49;;;;;;;42.03;19.63;;;;;;;0.61;100.00;99133.97;10367223;28;20887;-76
2023/11/30 08:58:54;;;;;;;41.55;20.40;;;;;;;0.71;100.00;99133.41;10365880;28;20919;-80
2023/11/30 09:04:02;;;;;;;43.67;21.23;;;;;;;0.77;100.00;99133.06;10357869;28;20141;-79
2023/11/30 09:09:06;;;;;;;47.58;20.95;;;;;;;0.83;100.00;99130.88;10367646;28;21183;-79
2023/11/30 09:14:10;;;;;;;45.05;21.50;;;;;;;0.93;100.00;99122.38;10361900;28;20049;-78
2023/11/30 09:19:13;;;;;;;47.45;21.50;;;;;;;1.09;100.00;99122.28;10362058;28;20424;-78
2023/11/30 09:24:21;;;;;;;43.83;22.38;;;;;;;1.23;100.00;99120.47;10365248;28;20045;-78
2023/11/30 09:29:26;;;;;;;47.55;21.65;;;;;;;1.40;100.00;99113.28;10369010;28;20501;-78
2023/11/30 09:34:29;;;;;;;45.53;22.23;;;;;;;1.28;99.17;99104.31;10386124;28;20057;-79
2023/11/30 09:39:32;;;;;;;44.50;21.17;;;;;;;1.39;100.00;99095.72;10387706;28;21486;-79
2023/11/30 09:44:38;;;;;;;38.92;19.58;;;;;;;1.65;100.00;99092.25;10326258;28;20420;-78
2023/11/30 09:49:41;;;;;;;40.00;19.48;;;;;;;1.82;97.15;99101.75;10365962;28;21591;-78
2023/11/30 09:54:43;;;;;;;34.55;18.15;;;;;;;2.14;100.00;99093.50;10360310;28;20493;-78
2023/11/30 09:59:48;;;;;;;36.33;17.67;;;;;;;2.63;96.20;99092.81;10376664;28;20123;-80
2023/11/30 10:04:51;;;;;;;33.33;18.48;;;;;;;3.04;98.53;99089.09;10379780;28;20056;-81
2023/11/30 10:09:53;;;;;;;36.92;18.75;;;;;;;3.73;100.00;99086.81;10376480;28;20045;-80
2023/11/30 10:15:01;;;;;;;34.53;17.20;;;;;;;4.09;95.99;99083.25;10371772;28;20662;-77
2023/11/30 10:20:05;;;;;;;28.75;15.57;;;;;;;4.37;93.89;99079.34;10368592;28;20049;-80
2023/11/30 10:25:09;;;;;;;25.83;15.45;;;;;;;4.39;88.00;99076.59;10382509;28;20513;-78
2023/11/30 10:30:15;;;;;;;28.80;15.02;;;;;;;4.39;91.16;99065.94;10370458;28;20049;-79
2023/11/30 10:35:19;;;;;;;23.30;13.93;;;;;;;4.50;86.35;99060.66;10376580;28;20045;-77
2023/11/30 10:40:25;;;;;;;27.58;14.60;;;;;;;4.32;89.40;99062.06;10369972;28;20045;-78
2023/11/30 10:45:32;;;;;;;24.05;13.90;;;;;;;3.72;85.43;99058.56;10407520;28;20551;-77
2023/11/30 10:50:35;;;;;;;27.15;15.32;;;;;;;2.98;85.41;99055.91;10392169;28;20049;-79
2023/11/30 10:55:39;;;;;;;25.13;14.25;;;;;;;2.75;86.51;99052.22;10379754;28;20045;-78
2023/11/30 11:00:43;;;;;;;27.13;15.63;;;;;;;3.38;94.00;99045.09;10373724;28;20531;-77
2023/11/30 11:05:46;;;;;;;26.58;15.60;;;;;;;4.52;92.66;99032.09;10377741;28;20068;-78
2023/11/30 11:10:51;;;;;;;22.42;13.73;;;;;;;6.48;91.40;99036.66;10370020;28;20053;-78
2023/11/30 11:15:59;;;;;;;22.70;13.50;;;;;;;7.82;84.26;99031.09;10376882;28;20495;-79
2023/11/30 11:21:03;;;;;;;23.77;14.02;;;;;;;7.61;84.09;99027.69;10370006;28;20050;-79
2023/11/30 11:26:07;;;;;;;21.52;13.15;;;;;;;7.13;83.35;99023.94;10381011;28;20463;-78
2023/11/30 11:31:12;;;;;;;26.77;14.38;;;;;;;5.51;85.26;99041.16;10384065;28;20042;-80
2023/11/30 11:36:15;;;;;;;23.65;14.43;;;;;;;4.76;88.47;99033.84;10374406;28;20045;-78
2023/11/30 11:41:19;;;;;;;22.55;14.32;;;;;;;4.80;84.93;99038.81;10373314;28;20047;-79
2023/11/30 11:46:23;;;;;;;25.35;14.57;;;;;;;4.49;83.83;99044.81;10381353;28;20401;-78
2023/11/30 11:51:26;;;;;;;21.45;13.95;;;;;;;5.73;82.60;99037.59;10361254;28;20041;-80
2023/11/30 11:56:31;;;;;;;22.13;14.05;;;;;;;6.60;76.21;99029.41;10378565;28;20048;-80
2023/11/30 12:01:39;;;;;;;24.25;14.00;;;;;;;6.60;85.07;99022.25;10377153;28;20798;-81
2023/11/30 12:06:42;;;;;;;21.13;13.95;;;;;;;7.20;77.23;99017.06;10371598;28;20049;-79
2023/11/30 12:11:45;;;;;;;23.00;14.43;;;;;;;6.60;84.49;99014.22;10373007;28;20077;-80
2023/11/30 12:16:50;;;;;;;23.60;15.80;;;;;;;6.03;83.90;99020.88;10373315;28;20052;-79
2023/11/30 12:21:53;;;;;;;25.67;14.70;;;;;;;4.87;80.92;99022.34;10371856;28;20046;-80
2023/11/30 12:26:56;;;;;;;23.05;14.00;;;;;;;4.54;87.94;99022.19;10365774;28;20056;-78
2023/11/30 12:32:00;;;;;;;26.65;15.80;;;;;;;4.21;87.21;99035.44;10371984;28;20056;-78
2023/11/30 12:37:03;;;;;;;25.10;16.05;;;;;;;3.97;84.51;99023.03;10362399;28;20052;-78
2023/11/30 12:42:07;;;;;;;25.50;15.40;;;;;;;3.65;89.31;99018.34;10367534;28;20049;-77
2023/11/30 12:47:11;;;;;;;26.13;16.02;;;;;;;3.42;84.78;99022.66;10362530;28;20050;-78
2023/11/30 12:52:14;;;;;;;27.83;15.32;;;;;;;3.32;84.51;99012.81;10376636;28;20041;-78
2023/11/30 12:57:18;;;;;;;27.50;16.50;;;;;;;3.72;88.44;99011.59;10384625;28;20050;-78
2023/11/30 13:02:22;;;;;;;26.38;15.63;;;;;;;5.22;95.83;99017.75;10381601;28;20049;-78
2023/11/30 13:07:25;;;;;;;22.75;14.23;;;;;;;6.66;89.73;99009.34;10405602;28;20054;-80
2023/11/30 13:12:30;;;;;;;22.77;14.50;;;;;;;7.05;86.13;99005.91;10400900;28;20050;-80
2023/11/30 13:17:35;;;;;;;22.42;15.35;;;;;;;6.85;86.35;99010.28;10395910;28;20057;-80
2023/11/30 13:22:38;;;;;;;23.05;15.32;;;;;;;6.27;87.47;99001.13;10393690;28;20813;-81
2023/11/30 13:27:42;;;;;;;24.27;15.35;;;;;;;6.39;85.29;99003.59;10375758;28;20072;-80
2023/11/30 13:32:47;;;;;;;24.52;15.80;;;;;;;6.72;86.72;98999.00;10373269;28;20471;-81
2023/11/30 13:37:50;;;;;;;24.75;15.38;;;;;;;5.79;85.83;99001.59;10378310;28;20048;-81
2023/11/30 13:42:53;;;;;;;22.40;14.90;;;;;;;4.86;88.04;98999.38;10375284;28;20053;-81
2023/11/30 13:47:58;;;;;;;26.17;15.52;;;;;;;4.12;89.82;99003.28;10394007;28;20040;-80
2023/11/30 13:53:01;;;;;;;25.92;15.52;;;;;;;3.56;90.53;98994.25;10368657;28;20045;-80
2023/11/30 13:58:05;;;;;;;28.65;17.42;;;;;;;3.11;92.09;98997.50;10377247;28;20519;-80
2023/11/30 14:03:09;;;;;;;29.52;17.25;;;;;;;2.73;90.77;99000.25;10373558;28;20604;-80
2023/11/30 14:08:13;;;;;;;29.73;17.90;;;;;;;2.50;93.04;99002.69;10369474;28;20050;-81
2023/11/30 14:13:15;;;;;;;32.72;17.58;;;;;;;2.30;92.05;99000.53;10370795;28;20444;-80
2023/11/30 14:18:20;;;;;;;31.38;18.00;;;;;;;2.19;93.39;99006.56;10369423;28;20052;-81
2023/11/30 14:23:24;;;;;;;31.70;18.13;;;;;;;2.07;94.66;99002.97;10375336;28;20057;-81
2023/11/30 14:28:27;;;;;;;34.13;19.40;;;;;;;2.14;96.45;99008.72;10378603;28;20049;-80
2023/11/30 14:33:32;;;;;;;35.08;18.95;;;;;;;2.07;96.71;99024.16;10365231;28;20060;-80
2023/11/30 14:38:35;;;;;;;32.50;18.05;;;;;;;1.89;97.13;99031.56;10370460;28;20060;-81
2023/11/30 14:43:38;;;;;;;33.72;19.13;;;;;;;1.70;97.08;99033.69;10365383;28;20042;-81
2023/11/30 14:48:43;;;;;;;40.72;20.90;;;;;;;1.53;96.43;99039.25;10371965;28;20049;-82
2023/11/30 14:53:47;;;;;;;43.65;21.40;;;;;;;1.50;97.95;99029.72;10372091;28;21169;-81
2023/11/30 14:58:50;;;;;;;44.03;22.23;;;;;;;1.35;96.81;99026.28;10373152;28;20041;-82
2023/11/30 15:04:00;;;;;;;39.97;20.90;;;;;;;1.19;96.78;99033.50;10391057;28;20045;-82
2023/11/30 15:09:09;;;;;;;46.83;23.88;;;;;;;1.09;98.49;99030.56;10400690;28;20099;-82
2023/11/30 15:14:13;;;;;;;40.95;22.15;;;;;;;1.02;98.91;99043.34;10390528;28;20764;-82
2023/11/30 15:19:18;;;;;;;43.97;22.55;;;;;;;0.88;99.13;99045.13;10396381;28;20099;-83
2023/11/30 15:24:21;;;;;;;42.60;21.67;;;;;;;0.78;99.60;99058.09;10384567;28;20081;-82
2023/11/30 15:29:24;;;;;;;43.92;21.35;;;;;;;0.62;99.25;99058.19;10382409;28;20050;-83
2023/11/30 15:34:32;;;;;;;40.00;20.67;;;;;;;0.65;100.00;99065.06;10386066;28;20144;-82
2023/11/30 15:39:35;;;;;;;39.30;20.33;;;;;;;0.56;100.00;99056.75;10374220;28;20508;-83
2023/11/30 15:44:41;;;;;;;43.00;21.50;;;;;;;0.64;100.00;99061.59;10376383;28;20515;-81
2023/11/30 15:49:46;;;;;;;41.85;22.23;;;;;;;0.65;100.00;99059.78;10380344;28;20053;-82
2023/11/30 15:54:48;;;;;;;38.95;21.75;;;;;;;0.59;100.00;99055.72;10370801;28;20709;-83
2023/11/30 15:59:52;;;;;;;46.35;23.50;;;;;;;0.52;100.00;99062.31;10376682;28;20044;-82
2023/11/30 16:04:57;;;;;;;43.85;22.33;;;;;;;0.47;100.00;99065.25;10379170;28;20045;-83
2023/11/30 16:10:00;;;;;;;46.83;25.00;;;;;;;0.51;100.00;99065.91;10373388;28;20377;-82
2023/11/30 16:15:09;;;;;;;47.10;23.33;;;;;;;0.42;100.00;99066.47;10387278;28;20051;-82
2023/11/30 16:20:14;;;;;;;50.72;23.70;;;;;;;0.31;100.00;99073.25;10378932;28;20056;-81
2023/11/30 16:25:17;;;;;;;50.90;25.70;;;;;;;0.30;100.00;99073.31;10374369;28;20049;-83
2023/11/30 16:30:21;;;;;;;48.47;23.95;;;;;;;0.37;100.00;99078.16;10409681;28;20049;-81
2023/11/30 16:35:26;;;;;;;52.80;26.42;;;;;;;0.33;100.00;99071.38;10378590;28;20060;-81
2023/11/30 16:40:29;;;;;;;48.05;24.83;;;;;;;0.28;100.00;99069.94;10386477;28;20058;-81
2023/11/30 16:45:33;;;;;;;49.75;23.88;;;;;;;0.30;100.00;99068.91;10381378;28;20049;-82
2023/11/30 16:50:41;;;;;;;46.75;24.92;;;;;;;0.26;100.00;99056.81;10385322;28;20045;-82
2023/11/30 16:55:44;;;;;;;48.80;25.10;;;;;;;0.27;100.00;99058.50;10371369;28;21124;-81
2023/11/30 17:00:46;;;;;;;45.00;24.77;;;;;;;0.19;100.00;99063.38;10377691;28;20079;-81
2023/11/30 17:05:52;;;;;;;49.67;24.50;;;;;;;0.19;100.00;99050.19;10372355;28;20602;-83
2023/11/30 17:10:55;;;;;;;46.75;24.38;;;;;;;0.14;100.00;99053.13;10368003;28;20037;-82
2023/11/30 17:15:58;;;;;;;47.72;25.27;;;;;;;0.16;100.00;99053.88;10378466;28;20041;-83
2023/11/30 17:21:03;;;;;;;51.25;24.40;;;;;;;0.14;100.00;99055.75;10406108;28;20056;-82
2023/11/30 17:26:08;;;;;;;52.45;27.05;;;;;;;0.11;100.00;99058.59;10376066;28;20049;-83
2023/11/30 17:31:12;;;;;;;52.88;26.58;;;;;;;0.13;100.00;99067.25;10376543;28;20823;-81
2023/11/30 17:36:17;;;;;;;53.40;27.70;;;;;;;0.08;100.00;99063.19;10365450;28;20052;-81
2023/11/30 17:41:20;;;;;;;51.15;26.55;;;;;;;0.04;100.00;99066.94;10368709;28;20041;-81
2023/11/30 17:46:23;;;;;;;53.28;27.35;;;;;;;0.09;100.00;99060.47;10372095;28;20068;-80
2023/11/30 17:51:28;;;;;;;51.58;26.85;;;;;;;0.15;100.00;99065.38;10361203;28;21341;-81
2023/11/30 17:56:31;;;;;;;51.70;26.77;;;;;;;0.13;100.00;99077.81;10350685;28;20065;-80
2023/11/30 18:01:34;;;;;;;52.92;25.83;;;;;;;0.15;100.00;99083.00;10367985;28;20053;-79
2023/11/30 18:06:38;;;;;;;50.97;25.60;;;;;;;0.21;100.00;99079.16;10364009;28;20057;-83
2023/11/30 18:11:41;;;;;;;45.33;24.60;;;;;;;0.19;100.00;99087.16;10364435;28;20260;-81
2023/11/30 18:16:44;;;;;;;55.22;26.25;;;;;;;0.16;100.00;99098.78;10359734;28;20060;-81
2023/11/30 18:21:49;;;;;;;57.28;26.85;;;;;;;0.15;100.00;99097.06;10374482;28;20532;-81
2023/11/30 18:26:52;;;;;;;75.00;34.45;;;;;;;0.06;100.00;99100.25;10390410;28;20053;-80
2023/11/30 18:31:55;;;;;;;75.78;34.17;;;;;;;0.08;100.00;99089.56;10369293;28;20049;-81
2023/11/30 18:37:00;;;;;;;60.67;29.00;;;;;;;-0.03;100.00;99089.34;10373067;28;20041;-82
2023/11/30 18:42:03;;;;;;;53.47;26.05;;;;;;;-0.08;100.00;99097.56;10378194;28;20038;-81
2023/11/30 18:47:06;;;;;;;54.38;27.27;;;;;;;0.01;100.00;99101.47;10369453;28;20155;-82
2023/11/30 18:52:11;;;;;;;59.25;27.40;;;;;;;0.04;100.00;99110.03;10383637;28;20049;-83
2023/11/30 18:57:14;;;;;;;55.33;27.90;;;;;;;-0.03;100.00;99108.69;10371376;28;20060;-82
2023/11/30 19:02:17;;;;;;;59.05;27.25;;;;;;;0.05;100.00;99108.25;10372343;28;20056;-83
2023/11/30 19:07:21;;;;;;;59.22;28.83;;;;;;;0.00;100.00;99113.81;10376908;28;20727;-83
2023/11/30 19:12:24;;;;;;;59.22;30.23;;;;;;;0.04;100.00;99117.13;10378235;28;20061;-82
2023/11/30 19:17:27;;;;;;;58.90;31.55;;;;;;;0.04;100.00;99117.97;10381190;28;20049;-82
2023/11/30 19:22:32;;;;;;;58.63;28.55;;;;;;;0.02;100.00;99106.63;10390844;28;20075;-82
2023/11/30 19:27:35;;;;;;;57.03;28.27;;;;;;;-0.04;100.00;99108.78;10368334;28;20057;-81
2023/11/30 19:32:38;;;;;;;56.03;28.75;;;;;;;-0.11;100.00;99114.44;10412489;28;20046;-83
2023/11/30 19:37:43;;;;;;;61.72;28.20;;;;;;;-0.16;100.00;99121.75;10381299;28;20148;-81
2023/11/30 19:42:46;;;;;;;70.05;34.45;;;;;;;-0.23;100.00;99125.66;10378893;28;20049;-80
2023/11/30 19:47:49;;;;;;;61.00;29.60;;;;;;;-0.20;100.00;99125.50;10388385;28;20049;-80
2023/11/30 19:52:53;;;;;;;56.03;27.50;;;;;;;-0.23;100.00;99128.31;10380390;28;20054;-80
2023/11/30 19:57:56;;;;;;;53.92;27.88;;;;;;;-0.28;100.00;99135.63;10399072;28;20061;-81
2023/11/30 20:03:00;;;;;;;57.92;27.75;;;;;;;-0.29;100.00;99150.63;10370239;28;20060;-80
2023/11/30 20:08:05;;;;;;;56.60;27.85;;;;;;;-0.37;100.00;99147.56;10371074;28;20052;-81
2023/11/30 20:13:08;;;;;;;55.85;27.00;;;;;;;-0.45;100.00;99162.09;10375394;28;20379;-82
2023/11/30 20:18:11;;;;;;;58.35;28.20;;;;;;;-0.49;100.00;99161.44;10380002;28;20041;-79
2023/11/30 20:23:15;;;;;;;55.00;26.55;;;;;;;-0.46;100.00;99169.19;10386118;28;20037;-81
2023/11/30 20:28:18;;;;;;;60.83;28.00;;;;;;;-0.43;100.00;99165.53;10396130;28;20630;-80
2023/11/30 20:33:21;;;;;;;56.55;26.60;;;;;;;-0.40;100.00;99170.63;10386327;28;20534;-81
2023/11/30 20:38:28;;;;;;;65.85;29.08;;;;;;;-0.37;100.00;99171.28;10382077;28;20060;-80
2023/11/30 20:43:31;;;;;;;59.63;27.40;;;;;;;-0.38;100.00;99177.53;10375588;28;20191;-80
2023/11/30 20:48:35;;;;;;;63.35;30.13;;;;;;;-0.37;100.00;99181.00;10377086;28;21451;-80
2023/11/30 20:53:39;;;;;;;66.38;32.67;;;;;;;-0.35;100.00;99179.13;10372052;28;20088;-81
2023/11/30 20:58:45;;;;;;;67.43;32.30;;;;;;;-0.37;100.00;99181.84;10388317;28;20052;-80
2023/11/30 21:03:48;;;;;;;67.10;33.38;;;;;;;-0.33;100.00;99180.75;10380876;28;20046;-82
2023/11/30 21:08:53;;;;;;;71.07;32.70;;;;;;;-0.24;100.00;99181.19;10381424;28;20049;-81
2023/11/30 21:13:56;;;;;;;65.07;31.10;;;;;;;-0.31;100.00;99181.50;10382382;28;20132;-82
2023/11/30 21:18:59;;;;;;;62.38;30.30;;;;;;;-0.26;100.00;99183.06;10386214;28;20057;-82
2023/11/30 21:24:04;;;;;;;58.22;27.85;;;;;;;-0.42;100.00;99188.31;10381210;28;20045;-80
2023/11/30 21:29:07;;;;;;;63.20;27.85;;;;;;;-0.52;100.00;99172.16;10378120;28;20041;-82
2023/11/30 21:34:10;;;;;;;62.25;28.20;;;;;;;-0.57;100.00;99168.91;10381892;28;20041;-81
2023/11/30 21:39:15;;;;;;;63.97;29.48;;;;;;;-0.61;100.00;99173.47;10394845;28;20041;-81
2023/11/30 21:44:18;;;;;;;62.03;30.05;;;;;;;-0.49;100.00;99179.91;10389516;28;20582;-81
2023/11/30 21:49:21;;;;;;;57.00;26.98;;;;;;;-0.51;100.00;99179.13;10383074;28;20084;-80
2023/11/30 21:54:25;;;;;;;60.45;27.42;;;;;;;-0.47;100.00;99185.91;10380297;28;20061;-79
2023/11/30 21:59:28;;;;;;;61.83;27.98;;;;;;;-0.38;100.00;99182.81;10376866;28;20045;-81
2023/11/30 22:04:31;;;;;;;53.72;26.90;;;;;;;-0.47;100.00;99185.91;10380898;28;20092;-82
2023/11/30 22:09:36;;;;;;;57.50;27.70;;;;;;;-0.54;100.00;99195.13;10376635;28;20061;-80
2023/11/30 22:14:41;;;;;;;62.60;28.50;;;;;;;-0.29;100.00;99190.19;10373095;28;20052;-80
2023/11/30 22:19:44;;;;;;;57.22;28.00;;;;;;;-0.23;100.00;99198.72;10381491;28;20053;-80
2023/11/30 22:24:49;;;;;;;64.28;28.17;;;;;;;-0.22;100.00;99203.94;10380115;28;20042;-80
2023/11/30 22:29:52;;;;;;;58.75;26.55;;;;;;;-0.23;100.00;99202.19;10382417;28;20083;-80
2023/11/30 22:34:55;;;;;;;60.13;27.55;;;;;;;-0.21;100.00;99208.25;10447912;23;20462;-78
2023/11/30 22:40:00;;;;;;;63.20;28.92;;;;;;;-0.10;100.00;99215.59;10461855;28;20086;-80
2023/11/30 22:45:04;;;;;;;62.95;28.52;;;;;;;0.01;100.00;99212.34;10464992;28;20052;-80
2023/11/30 22:50:08;;;;;;;51.92;26.40;;;;;;;0.01;100.00;99223.75;10470062;28;20058;-79
2023/11/30 22:55:13;;;;;;;56.38;29.02;;;;;;;0.10;100.00;99223.22;10461959;28;20067;-79